Time;durP1;ratioP1;P1;durP2;ratioP2;P2;SDS_P1;SDS_P2;PMS_P1;PMS_P2;Temp;Humidity;BMP_temperature;BMP_pressure;BME280_temperature;BME280_humidity;BME280_pressure;Samples;Min_cycle;Max_cycle;Signal;HPM_P1;HPM_P2
2023/04/20 00:02:15;;;;;;;11.45;3.47;;;6.50;99.90;;;;;;5093747;27;20471;-54
2023/04/20 00:04:41;;;;;;;8.38;3.22;;;6.50;99.90;;;;;;5092283;27;20166;-55
2023/04/20 00:07:07;;;;;;;7.05;3.10;;;6.50;99.90;;;;;;5092963;28;20035;-55
2023/04/20 00:09:32;;;;;;;7.00;3.30;;;8.30;99.90;;;;;;5075051;28;20105;-54
2023/04/20 00:11:58;;;;;;;6.80;2.80;;;6.50;99.90;;;;;;5094031;27;20177;-55
2023/04/20 00:14:24;;;;;;;9.45;3.22;;;6.60;99.90;;;;;;5094036;27;20403;-55
2023/04/20 00:16:49;;;;;;;10.93;3.17;;;6.70;99.90;;;;;;5093302;27;20081;-54
2023/04/20 00:19:16;;;;;;;8.23;2.97;;;6.70;99.90;;;;;;5091537;27;20129;-55
2023/04/20 00:21:42;;;;;;;11.40;2.40;;;6.70;99.90;;;;;;5075788;28;20047;-54
2023/04/20 00:24:07;;;;;;;7.18;2.78;;;6.60;99.90;;;;;;5094243;27;20100;-54
2023/04/20 00:26:33;;;;;;;10.35;2.70;;;6.50;99.90;;;;;;5093243;27;20031;-55
2023/04/20 00:28:59;;;;;;;9.90;2.50;;;6.70;99.90;;;;;;5093046;27;20744;-55
2023/04/20 00:31:24;;;;;;;10.20;2.17;;;6.40;99.90;;;;;;5093778;28;20121;-55
2023/04/20 00:33:50;;;;;;;7.97;2.78;;;6.60;99.90;;;;;;5094077;28;20143;-54
2023/04/20 00:36:16;;;;;;;7.80;2.30;;;6.70;99.90;;;;;;5058860;28;20395;-55
2023/04/20 00:38:42;;;;;;;7.55;2.10;;;6.60;99.90;;;;;;5094009;27;20514;-53
2023/04/20 00:41:07;;;;;;;7.80;2.63;;;6.60;99.90;;;;;;5094684;27;20074;-56
2023/04/20 00:43:33;;;;;;;7.45;2.10;;;6.60;99.90;;;;;;5075465;28;20527;-55
2023/04/20 00:45:59;;;;;;;9.60;2.60;;;6.60;99.90;;;;;;5093571;28;20043;-56
2023/04/20 00:48:25;;;;;;;10.60;2.65;;;6.70;99.90;;;;;;5075706;28;20075;-55
2023/04/20 00:50:51;;;;;;;7.40;2.17;;;6.60;99.90;;;;;;5094992;28;20067;-54
2023/04/20 00:53:18;;;;;;;6.28;2.03;;;6.60;99.90;;;;;;5094691;28;20048;-53
2023/04/20 00:55:43;;;;;;;7.22;2.45;;;6.60;99.90;;;;;;5093151;28;20031;-54
2023/04/20 00:58:10;;;;;;;8.75;2.25;;;6.50;99.90;;;;;;5094854;28;20102;-53
2023/04/20 01:00:37;;;;;;;10.35;2.30;;;6.60;99.90;;;;;;5094064;28;20052;-54
2023/04/20 01:03:04;;;;;;;7.47;2.50;;;6.70;99.90;;;;;;5075790;28;20043;-55
2023/04/20 01:05:31;;;;;;;6.80;2.08;;;6.70;99.90;;;;;;5058537;28;20043;-54
2023/04/20 01:07:57;;;;;;;7.85;2.10;;;6.60;99.90;;;;;;5092826;28;20043;-55
2023/04/20 01:10:23;;;;;;;6.68;1.90;;;8.30;99.90;;;;;;5093994;28;20059;-54
2023/04/20 01:12:49;;;;;;;6.55;1.90;;;6.80;99.90;;;;;;5092584;28;20130;-54
2023/04/20 01:15:14;;;;;;;4.18;1.90;;;6.70;99.90;;;;;;5073836;28;20044;-55
2023/04/20 01:17:42;;;;;;;10.02;2.38;;;6.90;99.90;;;;;;5074037;28;20628;-56
2023/04/20 01:20:11;;;;;;;7.28;2.30;;;6.90;99.90;;;;;;5092551;28;20049;-54
2023/04/20 01:22:45;;;;;;;7.88;2.17;;;6.90;99.90;;;;;;5095138;28;20052;-55
2023/04/20 01:25:10;;;;;;;7.32;2.10;;;6.80;99.90;;;;;;5093031;28;20043;-56
2023/04/20 01:27:36;;;;;;;10.85;2.85;;;7.00;99.90;;;;;;5093566;28;20038;-55
2023/04/20 01:30:02;;;;;;;9.30;2.03;;;7.00;99.90;;;;;;5076867;28;20089;-56
2023/04/20 01:32:28;;;;;;;5.65;2.03;;;7.30;99.90;;;;;;5078921;28;20457;-56
2023/04/20 01:34:53;;;;;;;6.22;2.00;;;7.00;99.90;;;;;;5096870;27;20051;-55
2023/04/20 01:37:19;;;;;;;7.00;2.38;;;8.90;99.90;;;;;;5096240;27;20149;-55
2023/04/20 01:39:45;;;;;;;7.25;2.35;;;6.90;99.90;;;;;;5096750;27;20083;-55
2023/04/20 01:42:10;;;;;;;7.32;1.98;;;7.10;99.90;;;;;;5096690;27;20184;-56
2023/04/20 01:44:37;;;;;;;4.88;1.88;;;7.80;99.90;;;;;;5096565;27;20184;-56
2023/04/20 01:47:03;;;;;;;8.35;2.25;;;8.70;99.90;;;;;;5095016;28;20051;-55
2023/04/20 01:49:29;;;;;;;10.45;2.80;;;6.90;99.90;;;;;;5095576;27;20259;-55
2023/04/20 01:51:55;;;;;;;9.73;2.28;;;7.00;99.90;;;;;;5060977;27;20630;-56
2023/04/20 01:54:21;;;;;;;8.88;2.15;;;7.00;99.90;;;;;;5076975;27;20098;-55
2023/04/20 01:56:47;;;;;;;7.40;2.20;;;6.80;99.90;;;;;;5095998;27;20059;-55
2023/04/20 01:59:13;;;;;;;8.27;1.98;;;6.70;99.90;;;;;;5095283;28;20607;-56
2023/04/20 02:01:38;;;;;;;4.47;1.70;;;8.50;99.90;;;;;;5096644;27;20044;-54
2023/04/20 02:04:04;;;;;;;10.73;1.98;;;7.10;99.90;;;;;;5095870;27;20043;-55
2023/04/20 02:06:31;;;;;;;8.13;2.38;;;6.80;99.90;;;;;;5077794;28;20171;-56
2023/04/20 02:08:57;;;;;;;11.20;2.67;;;6.60;99.90;;;;;;5095529;27;20680;-55
2023/04/20 02:11:23;;;;;;;9.45;2.28;;;6.50;99.90;;;;;;5097098;27;20077;-55
2023/04/20 02:13:49;;;;;;;8.48;2.10;;;6.40;99.90;;;;;;5096332;27;20067;-55
2023/04/20 02:16:16;;;;;;;7.60;2.20;;;6.30;99.90;;;;;;5096362;27;20034;-55
2023/04/20 02:18:41;;;;;;;8.38;2.17;;;6.40;99.90;;;;;;5096642;27;20407;-54
2023/04/20 02:21:07;;;;;;;5.82;2.10;;;7.30;99.90;;;;;;5096687;27;20124;-55
2023/04/20 02:23:33;;;;;;;7.18;2.33;;;6.30;99.90;;;;;;5097375;28;20050;-55
2023/04/20 02:25:58;;;;;;;6.07;2.33;;;6.30;99.90;;;;;;5096464;27;20043;-55
2023/04/20 02:28:24;;;;;;;11.45;2.38;;;6.20;99.90;;;;;;5096063;27;20522;-56
2023/04/20 02:30:50;;;;;;;8.68;1.95;;;6.40;99.90;;;;;;5096534;27;20529;-55
2023/04/20 02:33:16;;;;;;;6.53;2.10;;;6.40;99.90;;;;;;5097261;27;20353;-55
2023/04/20 02:35:42;;;;;;;12.32;2.58;;;6.50;99.90;;;;;;5095924;27;20050;-54
2023/04/20 02:38:08;;;;;;;7.78;2.42;;;6.40;99.90;;;;;;5096091;27;20071;-53
2023/04/20 02:40:33;;;;;;;7.47;2.42;;;6.30;99.90;;;;;;5096828;27;20125;-56
2023/04/20 02:42:59;;;;;;;7.68;2.40;;;6.40;99.90;;;;;;5097215;27;20619;-56
2023/04/20 02:45:25;;;;;;;11.48;2.60;;;6.30;99.90;;;;;;5095572;27;20038;-55
2023/04/20 02:47:51;;;;;;;8.52;2.05;;;6.40;99.90;;;;;;5095724;27;20043;-55
2023/04/20 02:50:16;;;;;;;8.13;2.38;;;6.50;99.90;;;;;;5077681;27;20581;-55
2023/04/20 02:52:42;;;;;;;9.70;2.20;;;6.60;99.90;;;;;;5079465;27;20036;-55
2023/04/20 02:55:08;;;;;;;11.05;2.63;;;6.50;99.90;;;;;;5096074;27;20066;-55
2023/04/20 02:57:34;;;;;;;9.50;2.10;;;6.60;99.90;;;;;;5094562;28;20071;-54
2023/04/20 03:00:00;;;;;;;8.52;2.50;;;6.60;99.90;;;;;;5095628;27;20508;-55
2023/04/20 03:02:26;;;;;;;9.82;3.53;;;6.60;99.90;;;;;;5094071;27;20393;-54
2023/04/20 03:04:51;;;;;;;12.73;2.40;;;6.80;99.90;;;;;;5093717;27;20112;-54
2023/04/20 03:07:17;;;;;;;9.68;2.50;;;6.80;99.90;;;;;;5093957;27;20109;-54
2023/04/20 03:09:43;;;;;;;9.43;3.15;;;7.10;99.90;;;;;;5077009;28;20479;-55
2023/04/20 03:12:09;;;;;;;4.45;2.10;;;6.80;99.90;;;;;;5094912;27;20094;-55
2023/04/20 03:14:35;;;;;;;8.68;2.65;;;6.70;99.90;;;;;;5094673;27;20089;-56
2023/04/20 03:17:01;;;;;;;6.15;2.35;;;6.90;99.90;;;;;;5094933;27;20214;-53
2023/04/20 03:19:27;;;;;;;10.48;2.47;;;7.00;99.90;;;;;;5093520;27;20047;-55
2023/04/20 03:21:52;;;;;;;9.55;2.53;;;7.20;99.90;;;;;;5093935;27;20035;-55
2023/04/20 03:24:18;;;;;;;11.20;2.50;;;7.20;99.90;;;;;;5095475;27;20031;-55
2023/04/20 03:26:44;;;;;;;8.52;2.20;;;7.20;99.90;;;;;;5095668;27;20056;-55
2023/04/20 03:29:09;;;;;;;11.05;2.25;;;8.70;99.90;;;;;;5075646;28;20488;-54
2023/04/20 03:31:35;;;;;;;7.50;2.13;;;7.50;99.90;;;;;;5094312;27;20256;-54
2023/04/20 03:34:01;;;;;;;6.80;2.33;;;8.60;99.90;;;;;;5094021;27;20093;-55
2023/04/20 03:36:30;;;;;;;8.65;2.13;;;7.60;99.90;;;;;;5094181;27;21537;-54
2023/04/20 03:38:56;;;;;;;13.68;2.75;;;8.10;99.90;;;;;;5096249;27;20043;-56
2023/04/20 03:41:22;;;;;;;7.30;2.47;;;8.60;99.90;;;;;;5076035;28;20096;-56
2023/04/20 03:43:47;;;;;;;6.85;2.80;;;8.00;99.90;;;;;;5075456;28;20027;-56
2023/04/20 03:46:13;;;;;;;6.13;2.00;;;7.40;99.90;;;;;;5093745;27;21075;-54
2023/04/20 03:48:39;;;;;;;7.18;1.98;;;7.90;99.90;;;;;;5076906;28;20200;-56
2023/04/20 03:51:05;;;;;;;6.78;2.25;;;7.40;99.90;;;;;;5094576;27;20039;-56
2023/04/20 03:53:31;;;;;;;6.93;2.05;;;7.80;99.90;;;;;;5096571;27;20388;-57
2023/04/20 03:55:56;;;;;;;7.85;2.10;;;7.80;99.90;;;;;;5095672;28;20059;-55
2023/04/20 03:58:22;;;;;;;8.65;2.38;;;7.70;99.90;;;;;;5096004;27;20452;-53
2023/04/20 04:00:48;;;;;;;6.57;2.10;;;8.40;99.90;;;;;;5093861;28;20047;-56
2023/04/20 04:03:14;;;;;;;5.68;1.83;;;7.90;99.90;;;;;;5095325;27;20503;-52
2023/04/20 04:05:40;;;;;;;5.47;2.28;;;8.00;99.90;;;;;;5096260;27;20048;-56
2023/04/20 04:08:06;;;;;;;6.20;1.90;;;7.80;99.90;;;;;;5095587;27;20040;-53
2023/04/20 04:10:32;;;;;;;10.65;3.92;;;7.80;99.90;;;;;;5093808;27;20062;-51
2023/04/20 04:12:57;;;;;;;5.10;1.90;;;9.30;99.90;;;;;;5095158;27;20061;-53
2023/04/20 04:15:23;;;;;;;7.57;2.22;;;7.90;99.90;;;;;;5094278;28;20539;-55
2023/04/20 04:17:49;;;;;;;8.45;2.85;;;8.00;99.90;;;;;;5094780;27;20092;-55
2023/04/20 04:20:15;;;;;;;9.52;2.10;;;8.00;99.90;;;;;;5092399;27;20122;-53
2023/04/20 04:22:42;;;;;;;7.80;2.10;;;7.90;99.90;;;;;;5094148;27;20495;-51
2023/04/20 04:25:08;;;;;;;10.38;1.95;;;8.00;99.90;;;;;;5076051;28;20510;-56
2023/04/20 04:27:34;;;;;;;7.38;1.73;;;8.00;99.90;;;;;;5094508;28;20052;-53
2023/04/20 04:30:02;;;;;;;5.45;1.35;;;8.00;99.90;;;;;;5092885;27;20101;-53
2023/04/20 04:32:27;;;;;;;5.30;1.50;;;8.10;99.90;;;;;;5093270;28;20074;-54
2023/04/20 04:34:54;;;;;;;4.45;1.33;;;8.10;99.90;;;;;;5093417;27;20142;-56
2023/04/20 04:37:20;;;;;;;7.50;1.58;;;8.10;99.90;;;;;;5093759;27;20027;-55
2023/04/20 04:39:46;;;;;;;11.57;1.90;;;9.30;99.90;;;;;;5094208;27;20072;-51
2023/04/20 04:42:12;;;;;;;11.30;3.47;;;7.90;99.90;;;;;;5093054;27;20031;-54
2023/04/20 04:44:38;;;;;;;5.50;1.60;;;8.10;99.90;;;;;;5093246;27;20142;-52
2023/04/20 04:47:04;;;;;;;5.57;1.70;;;8.30;99.90;;;;;;5093141;27;20326;-53
2023/04/20 04:49:34;;;;;;;5.00;1.40;;;9.00;99.90;;;;;;5093327;28;20271;-53
2023/04/20 04:52:01;;;;;;;4.63;1.35;;;8.10;99.90;;;;;;5093225;28;20041;-52
2023/04/20 04:54:26;;;;;;;5.05;1.70;;;7.90;99.90;;;;;;5092865;27;20032;-52
2023/04/20 04:56:52;;;;;;;4.75;1.92;;;7.90;99.90;;;;;;5075918;28;20039;-53
2023/04/20 04:59:18;;;;;;;5.50;1.80;;;7.90;99.90;;;;;;5093472;27;20039;-54
2023/04/20 05:01:44;;;;;;;6.93;1.95;;;8.60;99.90;;;;;;5070338;28;20066;-53
2023/04/20 05:04:10;;;;;;;8.77;1.55;;;8.00;99.90;;;;;;5070955;28;20056;-52
2023/04/20 05:06:35;;;;;;;5.05;1.60;;;7.80;99.90;;;;;;5073080;28;20082;-53
2023/04/20 05:09:01;;;;;;;5.25;1.75;;;8.00;99.90;;;;;;5073415;28;20123;-52
2023/04/20 05:11:27;;;;;;;4.93;1.30;;;8.00;99.90;;;;;;5073022;28;20044;-54
2023/04/20 05:13:53;;;;;;;6.25;2.00;;;7.90;99.90;;;;;;5072039;28;20039;-49
2023/04/20 05:16:19;;;;;;;5.85;1.83;;;7.80;99.90;;;;;;5073306;28;20626;-50
2023/04/20 05:18:45;;;;;;;5.20;2.30;;;8.00;99.90;;;;;;5072804;28;20101;-52
2023/04/20 05:21:11;;;;;;;4.90;1.73;;;7.70;99.90;;;;;;5072263;28;20119;-54
2023/04/20 05:23:36;;;;;;;3.58;1.33;;;8.10;99.90;;;;;;5073890;28;20029;-55
2023/04/20 05:26:02;;;;;;;3.80;1.50;;;7.80;99.90;;;;;;5072072;28;20059;-54
2023/04/20 05:28:28;;;;;;;7.63;1.67;;;7.90;99.90;;;;;;5073504;28;20089;-54
2023/04/20 05:30:54;;;;;;;5.03;1.38;;;7.80;99.90;;;;;;5072623;28;20769;-51
2023/04/20 05:33:20;;;;;;;5.38;1.23;;;7.80;99.90;;;;;;5071672;28;20067;-52
2023/04/20 05:35:46;;;;;;;5.90;1.55;;;9.40;99.90;;;;;;5073030;28;20357;-55
2023/04/20 05:38:11;;;;;;;9.65;2.10;;;8.40;99.90;;;;;;5071652;28;20044;-50
2023/04/20 05:40:37;;;;;;;8.45;1.65;;;7.90;99.90;;;;;;5071985;28;20056;-53
2023/04/20 05:43:03;;;;;;;6.47;1.85;;;7.40;99.90;;;;;;5070812;28;20501;-51
2023/04/20 05:45:29;;;;;;;5.90;2.30;;;7.40;99.90;;;;;;5071503;28;20785;-56
2023/04/20 05:47:55;;;;;;;8.93;2.45;;;7.70;99.90;;;;;;5071479;28;20040;-57
2023/04/20 05:50:23;;;;;;;4.22;1.85;;;7.10;99.90;;;;;;5071129;28;20126;-57
2023/04/20 05:52:49;;;;;;;6.97;2.05;;;7.00;99.90;;;;;;5071202;28;20039;-57
2023/04/20 05:55:16;;;;;;;10.25;2.30;;;7.00;99.90;;;;;;5071363;28;20047;-57
2023/04/20 05:57:41;;;;;;;9.02;2.45;;;6.90;99.90;;;;;;5071814;28;21035;-57
2023/04/20 06:00:15;;;;;;;10.00;2.08;;;7.10;99.90;;;;;;5072046;28;20059;-57
2023/04/20 06:02:41;;;;;;;5.90;2.05;;;7.10;99.90;;;;;;5089643;28;20064;-58
2023/04/20 06:05:09;;;;;;;9.82;2.88;;;8.50;99.90;;;;;;5092070;28;20032;-57
2023/04/20 06:07:35;;;;;;;6.95;2.28;;;7.30;99.90;;;;;;5091807;28;20096;-58
2023/04/20 06:10:02;;;;;;;5.95;1.52;;;7.30;99.90;;;;;;5091352;28;20513;-57
2023/04/20 06:12:31;;;;;;;4.90;1.63;;;7.40;99.90;;;;;;5091558;28;20067;-57
2023/04/20 06:14:57;;;;;;;3.08;1.58;;;7.50;99.90;;;;;;5093303;27;20036;-57
2023/04/20 06:17:23;;;;;;;5.97;2.22;;;7.70;99.90;;;;;;5096360;28;20035;-58
2023/04/20 06:19:49;;;;;;;5.78;1.70;;;7.50;99.90;;;;;;5095629;27;20047;-57
2023/04/20 06:22:15;;;;;;;15.20;1.67;;;7.30;99.90;;;;;;5094570;28;20254;-57
2023/04/20 06:24:41;;;;;;;5.55;2.20;;;8.50;99.90;;;;;;5098927;27;20499;-57
2023/04/20 06:27:08;;;;;;;6.63;2.08;;;7.40;99.90;;;;;;5096829;27;20042;-57
2023/04/20 06:29:33;;;;;;;4.75;1.73;;;7.40;99.90;;;;;;5096562;27;20049;-57
2023/04/20 06:31:59;;;;;;;4.13;1.30;;;7.50;99.90;;;;;;5095870;27;20036;-56
2023/04/20 06:34:25;;;;;;;2.00;0.90;;;7.40;99.90;;;;;;5078703;27;20051;-57
2023/04/20 06:36:51;;;;;;;4.95;2.13;;;7.40;99.90;;;;;;5096320;28;20059;-58
2023/04/20 06:39:17;;;;;;;4.00;1.10;;;7.00;99.90;;;;;;5096247;27;20054;-57
2023/04/20 06:41:43;;;;;;;8.45;2.17;;;7.20;99.90;;;;;;5096027;28;20055;-57
2023/04/20 06:44:09;;;;;;;6.65;1.83;;;;;;;;;;5097301;27;20630;-58
2023/04/20 06:46:35;;;;;;;9.60;3.10;;;;;;;;;;5095599;27;20087;-57
2023/04/20 06:49:01;;;;;;;4.53;2.08;;;6.80;99.90;;;;;;5095930;27;20048;-57
2023/04/20 06:51:28;;;;;;;9.07;2.20;;;6.60;99.90;;;;;;5094560;28;20461;-57
2023/04/20 06:53:54;;;;;;;9.50;2.63;;;6.50;99.90;;;;;;5097120;27;20153;-57
2023/04/20 06:56:20;;;;;;;5.65;1.77;;;6.50;99.90;;;;;;5095665;28;20035;-57
2023/04/20 06:58:46;;;;;;;8.35;2.30;;;6.40;99.90;;;;;;5094871;27;20039;-57
2023/04/20 07:01:12;;;;;;;8.38;2.10;;;;;;;;;;5094569;27;20071;-58
2023/04/20 07:03:38;;;;;;;5.20;1.95;;;6.30;99.90;;;;;;5094834;27;20106;-57
2023/04/20 07:06:06;;;;;;;5.25;2.05;;;6.10;99.90;;;;;;5095485;27;20047;-57
2023/04/20 07:08:32;;;;;;;7.15;2.65;;;;;;;;;;5095410;27;20233;-57
2023/04/20 07:10:58;;;;;;;9.63;2.40;;;6.10;99.90;;;;;;5094826;27;20047;-57
2023/04/20 07:13:24;;;;;;;9.40;2.80;;;;;;;;;;5094980;27;20461;-57
2023/04/20 07:15:51;;;;;;;7.95;2.47;;;6.10;99.90;;;;;;5095826;27;20115;-56
2023/04/20 07:18:17;;;;;;;7.68;2.33;;;;;;;;;;5095318;27;20035;-57
2023/04/20 07:20:42;;;;;;;7.97;2.53;;;6.10;99.90;;;;;;5095200;27;20047;-56
2023/04/20 07:23:08;;;;;;;6.95;2.30;;;6.10;99.90;;;;;;5095465;28;20043;-57
2023/04/20 07:25:35;;;;;;;9.27;3.10;;;;;;;;;;5095886;27;20318;-57
2023/04/20 07:28:00;;;;;;;7.88;2.70;;;6.10;99.90;;;;;;5094591;27;20047;-57
2023/04/20 07:30:26;;;;;;;7.10;1.83;;;6.10;99.90;;;;;;5093974;27;20371;-57
2023/04/20 07:32:52;;;;;;;5.65;2.38;;;;;;;;;;5093610;27;20036;-56
2023/04/20 07:35:18;;;;;;;9.60;1.98;;;6.10;99.90;;;;;;5094544;27;20047;-56
2023/04/20 07:37:44;;;;;;;8.68;2.95;;;;;;;;;;5093762;28;20047;-57
2023/04/20 07:40:10;;;;;;;6.18;2.55;;;;;;;;;;5093182;27;20040;-57
2023/04/20 07:42:37;;;;;;;9.20;3.03;;;6.40;99.90;;;;;;5094628;27;20076;-57
2023/04/20 07:45:06;;;;;;;8.30;2.90;;;6.40;99.90;;;;;;5093717;27;20035;-57
2023/04/20 07:47:35;;;;;;;7.03;2.63;;;6.60;99.90;;;;;;5093545;27;20051;-58
2023/04/20 07:50:05;;;;;;;9.38;3.28;;;6.40;99.90;;;;;;5095125;27;20044;-57
2023/04/20 07:52:31;;;;;;;6.88;2.72;;;6.70;99.90;;;;;;5094625;27;20059;-57
2023/04/20 07:54:58;;;;;;;4.97;2.38;;;6.60;99.90;;;;;;5097046;27;20035;-57
2023/04/20 07:57:27;;;;;;;8.25;3.03;;;6.90;99.90;;;;;;5076933;27;20054;-57
2023/04/20 07:59:53;;;;;;;6.25;2.75;;;6.60;99.90;;;;;;5095665;27;20112;-57
2023/04/20 08:02:19;;;;;;;14.23;3.92;;;6.70;99.90;;;;;;5094177;27;20210;-57
2023/04/20 08:04:45;;;;;;;7.50;2.90;;;6.60;99.90;;;;;;5075444;27;20368;-57
2023/04/20 08:07:11;;;;;;;5.85;2.58;;;6.80;99.90;;;;;;5095613;27;20043;-57
2023/04/20 08:09:37;;;;;;;5.43;2.50;;;6.70;99.90;;;;;;5095097;27;20055;-57
2023/04/20 08:12:03;;;;;;;6.07;2.72;;;6.70;99.90;;;;;;5094515;27;20043;-57
2023/04/20 08:14:29;;;;;;;6.00;2.22;;;6.50;99.90;;;;;;5093693;27;20043;-57
2023/04/20 08:16:55;;;;;;;7.00;3.10;;;6.70;99.90;;;;;;5095009;28;20395;-57
2023/04/20 08:19:21;;;;;;;9.23;2.88;;;6.60;99.90;;;;;;5092953;28;20373;-57
2023/04/20 08:21:47;;;;;;;5.88;2.30;;;6.60;99.90;;;;;;5075659;28;20044;-57
2023/04/20 08:24:12;;;;;;;5.13;2.85;;;6.70;99.90;;;;;;5094399;27;20114;-57
2023/04/20 08:26:38;;;;;;;5.97;3.58;;;6.70;99.90;;;;;;5093806;27;20043;-57
2023/04/20 08:29:04;;;;;;;7.22;2.60;;;6.60;99.90;;;;;;5094038;28;20051;-57
2023/04/20 08:31:31;;;;;;;5.75;2.35;;;6.80;99.90;;;;;;5093510;27;20582;-57
2023/04/20 08:33:57;;;;;;;7.18;2.63;;;6.90;99.90;;;;;;5093386;27;20488;-56
2023/04/20 08:36:23;;;;;;;7.90;2.67;;;6.90;99.90;;;;;;5093448;28;20581;-55
2023/04/20 08:39:12;;;;;;;5.93;2.55;;;6.70;99.90;;;;;;5092659;28;20088;-57
2023/04/20 08:41:38;;;;;;;8.38;2.67;;;6.60;99.90;;;;;;5093036;27;20535;-56
2023/04/20 08:44:04;;;;;;;6.03;2.30;;;6.70;99.90;;;;;;5093551;27;20100;-57
2023/04/20 08:46:31;;;;;;;12.40;2.38;;;6.70;99.90;;;;;;5091960;27;20275;-57
2023/04/20 08:49:02;;;;;;;6.70;3.30;;;6.70;99.90;;;;;;5093653;27;20535;-57
2023/04/20 08:51:29;;;;;;;6.60;3.00;;;6.60;99.90;;;;;;5092557;27;20420;-56
2023/04/20 08:53:56;;;;;;;5.22;2.60;;;6.70;99.90;;;;;;5094606;28;20047;-57
2023/04/20 08:56:35;;;;;;;5.47;2.63;;;6.80;99.90;;;;;;5095115;28;20051;-57
2023/04/20 08:59:04;;;;;;;7.40;3.67;;;6.60;99.90;;;;;;5092947;27;21119;-55
2023/04/20 09:01:31;;;;;;;8.00;2.80;;;6.60;99.90;;;;;;5092974;27;20162;-56
2023/04/20 09:03:58;;;;;;;8.75;3.42;;;6.70;99.90;;;;;;5094300;28;20040;-56
2023/04/20 09:06:25;;;;;;;10.05;3.60;;;;;;;;;;5093852;28;20036;-57
2023/04/20 09:08:51;;;;;;;8.23;3.15;;;6.80;99.90;;;;;;5075414;28;20053;-56
2023/04/20 09:11:35;;;;;;;7.63;3.20;;;7.00;99.90;;;;;;5074904;28;20564;-56
2023/04/20 09:14:08;;;;;;;6.03;2.95;;;7.00;99.90;;;;;;5094302;28;20047;-57
2023/04/20 09:16:46;;;;;;;6.97;3.50;;;7.20;99.90;;;;;;5094662;28;20484;-57
2023/04/20 09:19:13;;;;;;;4.80;2.78;;;7.20;99.90;;;;;;5093154;28;20526;-57
2023/04/20 09:21:48;;;;;;;7.93;2.97;;;7.80;99.90;;;;;;5094232;28;20063;-57
2023/04/20 09:24:14;;;;;;;6.65;3.13;;;7.60;99.90;;;;;;5093345;28;20067;-57
2023/04/20 09:26:40;;;;;;;10.05;3.30;;;8.10;99.90;;;;;;5093845;28;20039;-57
2023/04/20 09:29:19;;;;;;;7.70;3.05;;;7.50;99.90;;;;;;5075221;28;20496;-57
2023/04/20 09:31:46;;;;;;;6.35;2.25;;;7.60;99.90;;;;;;5092364;28;20584;-56
2023/04/20 09:34:13;;;;;;;9.25;3.53;;;7.50;99.90;;;;;;5090307;28;20040;-57
2023/04/20 09:36:44;;;;;;;8.82;3.55;;;7.40;99.90;;;;;;5093635;28;20048;-58
2023/04/20 09:39:21;;;;;;;5.97;2.63;;;7.70;99.90;;;;;;5075870;28;20043;-57
2023/04/20 09:41:48;;;;;;;7.95;3.20;;;7.70;99.90;;;;;;5074709;28;20070;-57
2023/04/20 09:44:16;;;;;;;8.95;3.35;;;7.90;99.90;;;;;;5093119;28;20122;-57
2023/04/20 09:46:43;;;;;;;11.18;3.92;;;7.80;99.90;;;;;;5093572;28;20717;-57
2023/04/20 09:49:13;;;;;;;10.10;3.67;;;8.00;99.90;;;;;;5074885;28;20036;-57
2023/04/20 09:51:43;;;;;;;9.65;3.50;;;7.80;99.90;;;;;;5096773;27;20051;-58
2023/04/20 09:54:10;;;;;;;7.80;3.17;;;7.80;99.90;;;;;;5077937;27;20481;-58
2023/04/20 09:56:37;;;;;;;7.47;3.75;;;7.70;99.90;;;;;;5079702;28;20039;-58
2023/04/20 09:59:03;;;;;;;5.95;3.10;;;7.90;99.90;;;;;;5095984;27;20433;-59
2023/04/20 10:01:31;;;;;;;7.95;4.13;;;8.00;99.90;;;;;;5096022;27;20541;-58
2023/04/20 10:03:58;;;;;;;7.78;4.22;;;8.00;99.90;;;;;;5096113;27;20136;-57
2023/04/20 10:06:29;;;;;;;8.90;3.30;;;8.30;99.90;;;;;;5097489;27;20039;-58
2023/04/20 10:08:56;;;;;;;10.75;4.28;;;8.30;99.90;;;;;;5075922;28;20103;-58
2023/04/20 10:11:27;;;;;;;8.07;3.70;;;8.30;99.90;;;;;;5095931;27;20519;-57
2023/04/20 10:13:54;;;;;;;6.97;3.28;;;8.20;99.90;;;;;;5096916;27;20048;-57
2023/04/20 10:16:20;;;;;;;10.23;3.72;;;8.30;99.90;;;;;;5095438;28;20503;-57
2023/04/20 10:18:57;;;;;;;8.60;3.65;;;8.40;99.90;;;;;;5095714;27;20102;-57
2023/04/20 10:21:22;;;;;;;7.85;3.50;;;8.30;99.90;;;;;;5096444;27;20051;-58
2023/04/20 10:23:49;;;;;;;6.53;2.75;;;8.30;99.90;;;;;;5096221;27;20035;-57
2023/04/20 10:26:15;;;;;;;4.70;2.25;;;8.30;99.90;;;;;;5080278;28;21252;-58
2023/04/20 10:28:43;;;;;;;6.50;3.13;;;8.60;99.90;;;;;;5080042;28;20404;-57
2023/04/20 10:31:14;;;;;;;7.70;3.35;;;8.40;99.90;;;;;;5097630;28;20051;-57
2023/04/20 10:33:53;;;;;;;6.20;3.28;;;8.40;99.90;;;;;;5096801;28;20050;-58
2023/04/20 10:36:36;;;;;;;6.75;3.50;;;8.20;99.90;;;;;;5096057;27;20125;-57
2023/04/20 10:39:24;;;;;;;9.35;4.03;;;8.00;99.90;;;;;;5097341;27;20035;-58
2023/04/20 10:41:52;;;;;;;7.63;3.88;;;8.00;99.90;;;;;;5097172;27;20093;-57
2023/04/20 10:44:18;;;;;;;8.40;3.90;;;9.80;99.90;;;;;;5097718;27;20115;-57
2023/04/20 10:46:48;;;;;;;8.30;3.67;;;7.80;99.90;;;;;;5096584;27;20204;-57
2023/04/20 10:49:14;;;;;;;11.18;3.47;;;7.80;99.90;;;;;;5096758;27;20420;-57
2023/04/20 10:51:50;;;;;;;8.18;3.70;;;7.70;99.90;;;;;;5078469;27;20047;-57
2023/04/20 10:54:16;;;;;;;5.78;2.72;;;7.90;99.90;;;;;;5096397;27;20530;-57
2023/04/20 10:56:47;;;;;;;5.88;3.08;;;8.00;99.90;;;;;;5098245;27;20393;-57
2023/04/20 10:59:15;;;;;;;7.37;3.63;;;7.90;99.90;;;;;;5095363;27;20146;-57
2023/04/20 11:01:41;;;;;;;6.60;3.80;;;7.90;99.90;;;;;;5095164;27;20153;-57
2023/04/20 11:04:09;;;;;;;7.95;3.53;;;7.90;99.90;;;;;;5096146;27;20504;-57
2023/04/20 11:06:35;;;;;;;9.45;4.20;;;8.00;99.90;;;;;;5095872;27;20509;-57
2023/04/20 11:09:01;;;;;;;7.95;3.78;;;7.90;99.90;;;;;;5094886;27;20138;-57
2023/04/20 11:11:27;;;;;;;7.60;4.50;;;8.20;99.90;;;;;;5095393;27;20369;-57
2023/04/20 11:14:10;;;;;;;3.75;2.42;;;8.20;99.90;;;;;;5094997;28;20040;-57
2023/04/20 11:16:36;;;;;;;7.47;3.80;;;8.10;99.90;;;;;;5077255;28;20055;-57
2023/04/20 11:19:02;;;;;;;7.95;4.38;;;8.30;99.90;;;;;;5094771;27;20043;-57
2023/04/20 11:21:41;;;;;;;10.27;4.28;;;8.10;99.90;;;;;;5094343;27;20135;-57
2023/04/20 11:24:18;;;;;;;6.43;3.83;;;8.90;99.90;;;;;;5076520;28;20054;-58
2023/04/20 11:26:45;;;;;;;11.98;5.05;;;8.30;99.90;;;;;;5096905;27;20040;-57
2023/04/20 11:29:11;;;;;;;10.05;4.38;;;8.20;99.90;;;;;;5096053;27;20433;-57
2023/04/20 11:31:37;;;;;;;7.10;3.60;;;8.10;99.90;;;;;;5094199;27;20031;-57
2023/04/20 11:34:03;;;;;;;7.53;4.07;;;8.40;99.90;;;;;;5093999;27;20560;-57
2023/04/20 11:36:29;;;;;;;8.90;4.40;;;8.50;99.90;;;;;;5093319;27;20071;-56
2023/04/20 11:39:06;;;;;;;8.38;3.92;;;8.30;99.90;;;;;;5094201;27;20044;-58
2023/04/20 11:41:32;;;;;;;12.45;4.10;;;8.50;99.90;;;;;;5093310;27;20046;-57
2023/04/20 11:43:57;;;;;;;10.57;4.60;;;8.40;99.90;;;;;;5094817;27;20048;-57
2023/04/20 11:46:23;;;;;;;8.57;4.60;;;8.60;99.90;;;;;;5094738;28;20710;-57
2023/04/20 11:48:49;;;;;;;8.13;4.15;;;8.60;99.90;;;;;;5095013;27;20035;-57
2023/04/20 11:51:15;;;;;;;11.85;5.22;;;8.30;99.90;;;;;;5094982;28;20043;-57
2023/04/20 11:53:40;;;;;;;10.52;4.95;;;8.50;99.90;;;;;;5097260;27;20069;-57
2023/04/20 11:56:07;;;;;;;7.22;4.65;;;8.20;99.90;;;;;;5097035;28;20376;-57
2023/04/20 11:58:33;;;;;;;9.88;5.70;;;8.30;99.90;;;;;;5095467;27;20037;-57
2023/04/20 12:00:59;;;;;;;9.43;5.85;;;8.20;99.90;;;;;;5096051;27;20580;-57
2023/04/20 12:03:26;;;;;;;11.15;5.07;;;8.30;99.90;;;;;;5095235;27;20047;-57
2023/04/20 12:05:52;;;;;;;8.63;5.25;;;9.30;99.90;;;;;;5095378;27;20082;-57
2023/04/20 12:08:17;;;;;;;10.75;5.78;;;8.10;99.90;;;;;;5095432;27;20302;-56
2023/04/20 12:10:43;;;;;;;10.25;6.32;;;8.50;99.90;;;;;;5094009;27;20044;-57
2023/04/20 12:13:09;;;;;;;10.95;5.78;;;8.60;99.90;;;;;;5094516;27;20612;-57
2023/04/20 12:15:35;;;;;;;10.73;5.85;;;8.60;99.90;;;;;;5093785;27;20050;-58
2023/04/20 12:18:01;;;;;;;10.38;5.78;;;8.80;99.90;;;;;;5095537;27;20048;-57
2023/04/20 12:20:26;;;;;;;9.18;5.55;;;9.90;99.90;;;;;;5094244;27;20112;-56
2023/04/20 12:22:52;;;;;;;8.82;4.70;;;9.10;99.90;;;;;;5093775;27;20043;-57
2023/04/20 12:25:18;;;;;;;10.63;4.63;;;8.90;99.90;;;;;;5096268;27;20054;-57
2023/04/20 12:27:44;;;;;;;9.88;6.05;;;9.30;99.90;;;;;;5075683;28;20079;-59
2023/04/20 12:30:10;;;;;;;12.38;6.78;;;9.30;99.90;;;;;;5094258;27;20143;-57
2023/04/20 12:32:36;;;;;;;11.65;7.20;;;9.60;99.90;;;;;;5094092;27;20465;-56
2023/04/20 12:35:02;;;;;;;11.35;5.40;;;9.50;99.90;;;;;;5093388;27;20048;-57
2023/04/20 12:37:28;;;;;;;10.65;6.32;;;9.40;99.90;;;;;;5094960;27;20477;-55
2023/04/20 12:39:53;;;;;;;12.30;6.22;;;9.30;99.90;;;;;;5093047;27;20622;-56
2023/04/20 12:42:19;;;;;;;10.52;6.70;;;9.60;99.90;;;;;;5092963;27;20143;-55
2023/04/20 12:44:45;;;;;;;10.85;6.22;;;9.60;99.90;;;;;;5093379;27;20077;-55
2023/04/20 12:47:12;;;;;;;11.50;6.60;;;9.70;99.90;;;;;;5094423;27;20126;-57
2023/04/20 12:49:38;;;;;;;7.82;3.70;;;9.80;99.90;;;;;;5094055;27;20051;-56
2023/04/20 12:52:03;;;;;;;9.55;6.85;;;9.90;99.90;;;;;;5094137;28;20078;-56
2023/04/20 12:54:29;;;;;;;9.07;6.53;;;10.30;99.90;;;;;;5093547;28;20047;-56
2023/04/20 12:56:55;;;;;;;9.90;6.20;;;10.40;99.90;;;;;;5094196;28;20043;-56